PWSweather.com
Personal Weather Stations
Station Observations
IHTIMAN1
Neighbourhood 1, IhtimanBG 2050

Neighbourhood 1IhtimanBG 2050

Lat: 42.436852, Lon: 23.817921

Elevation: 2066

Station Type: Oregon Scientific WMR968

http://ihtiman-meteo.com

High Low Average
Temperature 72.9°F22.7°C 43.0°F6.1°C 58.1°F14.5°C
Dew Point 53.3°F11.8°C 39.9°F4.4°C 44.9°F7.2°C
Winds 11.5 mph 18.5 kmh Calm Calm 2.0 mph SW3.2 kmh SW
Wind Gusts 17.3 mph27.8 kmh -- 4.0 mph6.4 kmh
Humidity 98% 33% 67%
Pressure 29.91 in1012.9 mb 29.82 in1009.8 mb -
Precipitation 0.00 in0.0 mm - -
Hour Temp Dew Point Humidity Winds Wind Gusts Pressure Precip Precip Rate Daily Precip Total
12:00 AM 48.7°F9.3°C 48.2°F9.0°C 98% Calm Calm -- 29.86 in1011.2 mb - 0.00 in0.0 mm 0.00 in0.0 mm
12:10 AM 48.7°F9.3°C 48.2°F9.0°C 98% 2.3 mph S3.7 kmh S 3.5 mph5.6 kmh 29.86 in1011.2 mb - 0.00 in0.0 mm 0.00 in0.0 mm
12:20 AM 48.2°F9.0°C 47.7°F8.7°C 98% Calm Calm -- 29.86 in1011.2 mb - 0.00 in0.0 mm 0.00 in0.0 mm
12:30 AM 48.0°F8.9°C 47.5°F8.6°C 98% Calm Calm 3.5 mph5.6 kmh 29.86 in1011.2 mb - 0.00 in0.0 mm 0.00 in0.0 mm
12:40 AM 48.0°F8.9°C 47.5°F8.6°C 98% Calm Calm -- 29.86 in1011.2 mb - 0.00 in0.0 mm 0.00 in0.0 mm
12:50 AM 48.0°F8.9°C 47.5°F8.6°C 98% Calm Calm 2.3 mph3.7 kmh 29.86 in1011.2 mb - 0.00 in0.0 mm 0.00 in0.0 mm
01:00 AM 47.8°F8.8°C 47.3°F8.5°C 98% Calm Calm -- 29.86 in1011.2 mb - 0.00 in0.0 mm 0.00 in0.0 mm
01:10 AM 47.7°F8.7°C 47.1°F8.4°C 98% Calm Calm -- 29.86 in1011.2 mb - 0.00 in0.0 mm 0.00 in0.0 mm
01:20 AM 47.7°F8.7°C 47.1°F8.4°C 98% Calm Calm -- 29.86 in1011.2 mb - 0.00 in0.0 mm 0.00 in0.0 mm
01:30 AM 47.3°F8.5°C 46.8°F8.2°C 98% Calm Calm -- 29.86 in1011.2 mb - 0.00 in0.0 mm 0.00 in0.0 mm
01:40 AM 46.9°F8.3°C 46.4°F8.0°C 98% Calm Calm -- 29.86 in1011.2 mb - 0.00 in0.0 mm 0.00 in0.0 mm
01:50 AM 46.6°F8.1°C 46.0°F7.8°C 98% Calm Calm -- 29.86 in1011.2 mb - 0.00 in0.0 mm 0.00 in0.0 mm
02:10 AM 46.2°F7.9°C 45.7°F7.6°C 98% Calm Calm -- 29.82 in1009.8 mb - 0.00 in0.0 mm 0.00 in0.0 mm
02:20 AM 46.2°F7.9°C 45.7°F7.6°C 98% Calm Calm -- 29.86 in1011.2 mb - 0.00 in0.0 mm 0.00 in0.0 mm
02:30 AM 45.9°F7.7°C 45.3°F7.4°C 98% Calm Calm -- 29.86 in1011.2 mb - 0.00 in0.0 mm 0.00 in0.0 mm
02:40 AM 45.7°F7.6°C 45.1°F7.3°C 98% Calm Calm -- 29.86 in1011.2 mb - 0.00 in0.0 mm 0.00 in0.0 mm
02:50 AM 45.5°F7.5°C 45.0°F7.2°C 98% Calm Calm -- 29.86 in1011.2 mb - 0.00 in0.0 mm 0.00 in0.0 mm
03:00 AM 45.3°F7.4°C 44.8°F7.1°C 98% Calm Calm -- 29.86 in1011.2 mb - 0.00 in0.0 mm 0.00 in0.0 mm
03:10 AM 45.3°F7.4°C 44.8°F7.1°C 98% Calm Calm -- 29.86 in1011.2 mb - 0.00 in0.0 mm 0.00 in0.0 mm
03:20 AM 45.1°F7.3°C 44.6°F7.0°C 98% Calm Calm -- 29.86 in1011.2 mb - 0.00 in0.0 mm 0.00 in0.0 mm
03:30 AM 45.1°F7.3°C 44.6°F7.0°C 98% Calm Calm -- 29.86 in1011.2 mb - 0.00 in0.0 mm 0.00 in0.0 mm
03:40 AM 44.8°F7.1°C 44.3°F6.8°C 98% Calm Calm -- 29.86 in1011.2 mb - 0.00 in0.0 mm 0.00 in0.0 mm
03:50 AM 44.8°F7.1°C 44.3°F6.8°C 98% Calm Calm -- 29.86 in1011.2 mb - 0.00 in0.0 mm 0.00 in0.0 mm
04:10 AM 44.6°F7.0°C 44.1°F6.7°C 98% Calm Calm -- 29.86 in1011.2 mb - 0.00 in0.0 mm 0.00 in0.0 mm
04:20 AM 44.2°F6.8°C 43.7°F6.5°C 98% Calm Calm -- 29.86 in1011.2 mb - 0.00 in0.0 mm 0.00 in0.0 mm
04:30 AM 43.5°F6.4°C 42.9°F6.1°C 98% Calm Calm -- 29.86 in1011.2 mb - 0.00 in0.0 mm 0.00 in0.0 mm
04:40 AM 43.0°F6.1°C 42.5°F5.8°C 98% Calm Calm -- 29.86 in1011.2 mb - 0.00 in0.0 mm 0.00 in0.0 mm
04:50 AM 43.0°F6.1°C 42.5°F5.8°C 98% Calm Calm -- 29.86 in1011.2 mb - 0.00 in0.0 mm 0.00 in0.0 mm
05:00 AM 43.0°F6.1°C 42.5°F5.8°C 98% Calm Calm -- 29.86 in1011.2 mb - 0.00 in0.0 mm 0.00 in0.0 mm
05:10 AM 43.0°F6.1°C 42.5°F5.8°C 98% Calm Calm -- 29.86 in1011.2 mb - 0.00 in0.0 mm 0.00 in0.0 mm
05:20 AM 43.0°F6.1°C 42.5°F5.8°C 98% Calm Calm -- 29.86 in1011.2 mb - 0.00 in0.0 mm 0.00 in0.0 mm
05:30 AM 43.0°F6.1°C 42.5°F5.8°C 98% Calm Calm -- 29.86 in1011.2 mb - 0.00 in0.0 mm 0.00 in0.0 mm
05:40 AM 43.0°F6.1°C 42.5°F5.8°C 98% Calm Calm -- 29.86 in1011.2 mb - 0.00 in0.0 mm 0.00 in0.0 mm
05:50 AM 43.0°F6.1°C 42.5°F5.8°C 98% Calm Calm -- 29.86 in1011.2 mb - 0.00 in0.0 mm 0.00 in0.0 mm
06:00 AM 43.0°F6.1°C 42.5°F5.8°C 98% Calm Calm -- 29.86 in1011.2 mb - 0.00 in0.0 mm 0.00 in0.0 mm
06:10 AM 44.1°F6.7°C 43.5°F6.4°C 98% Calm Calm -- 29.86 in1011.2 mb - 0.00 in0.0 mm 0.00 in0.0 mm
06:20 AM 44.0°F6.7°C 43.4°F6.3°C 98% Calm Calm -- 29.86 in1011.2 mb - 0.00 in0.0 mm 0.00 in0.0 mm
06:30 AM 44.6°F7.0°C 44.1°F6.7°C 98% Calm Calm -- 29.88 in1011.9 mb - 0.00 in0.0 mm 0.00 in0.0 mm
06:40 AM 45.3°F7.4°C 44.8°F7.1°C 98% Calm Calm -- 29.88 in1011.9 mb - 0.00 in0.0 mm 0.00 in0.0 mm
06:50 AM 46.3°F7.9°C 45.8°F7.7°C 98% Calm Calm -- 29.88 in1011.9 mb - 0.00 in0.0 mm 0.00 in0.0 mm
07:00 AM 47.6°F8.7°C 47.0°F8.3°C 98% Calm Calm -- 29.88 in1011.9 mb - 0.00 in0.0 mm 0.00 in0.0 mm
07:10 AM 48.9°F9.4°C 48.3°F9.1°C 98% Calm Calm -- 29.88 in1011.9 mb - 0.00 in0.0 mm 0.00 in0.0 mm
07:20 AM 51.6°F10.9°C 51.0°F10.6°C 98% Calm Calm -- 29.88 in1011.9 mb - 0.00 in0.0 mm 0.00 in0.0 mm
07:30 AM 53.8°F12.1°C 53.2°F11.8°C 98% Calm Calm -- 29.88 in1011.9 mb - 0.00 in0.0 mm 0.00 in0.0 mm
07:40 AM 55.0°F12.8°C 53.3°F11.8°C 94% Calm Calm -- 29.88 in1011.9 mb - 0.00 in0.0 mm 0.00 in0.0 mm
07:50 AM 55.4°F13.0°C 51.2°F10.7°C 86% Calm Calm -- 29.88 in1011.9 mb - 0.00 in0.0 mm 0.00 in0.0 mm
08:00 AM 57.5°F14.2°C 51.8°F11.0°C 81% Calm Calm -- 29.88 in1011.9 mb - 0.00 in0.0 mm 0.00 in0.0 mm
08:10 AM 58.8°F14.9°C 50.5°F10.3°C 74% Calm Calm -- 29.88 in1011.9 mb - 0.00 in0.0 mm 0.00 in0.0 mm
08:20 AM 58.3°F14.6°C 49.3°F9.6°C 72% Calm Calm -- 29.86 in1011.2 mb - 0.00 in0.0 mm 0.00 in0.0 mm
08:30 AM 59.4°F15.2°C 50.0°F10.0°C 71% Calm Calm -- 29.88 in1011.9 mb - 0.00 in0.0 mm 0.00 in0.0 mm
08:40 AM 61.3°F16.3°C 50.6°F10.3°C 68% Calm Calm -- 29.88 in1011.9 mb - 0.00 in0.0 mm 0.00 in0.0 mm
08:50 AM 61.3°F16.3°C 50.3°F10.2°C 67% Calm Calm -- 29.88 in1011.9 mb - 0.00 in0.0 mm 0.00 in0.0 mm
09:00 AM 62.2°F16.8°C 51.5°F10.8°C 68% Calm Calm -- 29.86 in1011.2 mb - 0.00 in0.0 mm 0.00 in0.0 mm
09:10 AM 64.8°F18.2°C 51.4°F10.8°C 62% Calm Calm -- 29.86 in1011.2 mb - 0.00 in0.0 mm 0.00 in0.0 mm
09:20 AM 65.5°F18.6°C 51.7°F10.9°C 61% Calm Calm -- 29.86 in1011.2 mb - 0.00 in0.0 mm 0.00 in0.0 mm
09:30 AM 66.1°F18.9°C 51.8°F11.0°C 60% Calm Calm -- 29.86 in1011.2 mb - 0.00 in0.0 mm 0.00 in0.0 mm
09:40 AM 65.7°F18.7°C 49.6°F9.8°C 56% Calm Calm -- 29.86 in1011.2 mb - 0.00 in0.0 mm 0.00 in0.0 mm
09:50 AM 65.4°F18.6°C 46.8°F8.2°C 51% Calm Calm -- 29.86 in1011.2 mb - 0.00 in0.0 mm 0.00 in0.0 mm
10:00 AM 67.1°F19.5°C 48.4°F9.1°C 51% Calm Calm -- 29.86 in1011.2 mb - 0.00 in0.0 mm 0.00 in0.0 mm
10:10 AM 67.6°F19.8°C 48.3°F9.1°C 50% 5.8 mph N9.3 kmh N 9.2 mph14.8 kmh 29.86 in1011.2 mb - 0.00 in0.0 mm 0.00 in0.0 mm
10:20 AM 65.8°F18.8°C 46.1°F7.8°C 49% 2.3 mph NNW3.7 kmh NNW 2.3 mph3.7 kmh 29.88 in1011.9 mb - 0.00 in0.0 mm 0.00 in0.0 mm
10:30 AM 66.4°F19.1°C 47.7°F8.7°C 51% Calm Calm 3.5 mph5.6 kmh 29.88 in1011.9 mb - 0.00 in0.0 mm 0.00 in0.0 mm
10:40 AM 64.7°F18.2°C 45.6°F7.6°C 50% 2.3 mph ENE3.7 kmh ENE 3.5 mph5.6 kmh 29.88 in1011.9 mb - 0.00 in0.0 mm 0.00 in0.0 mm
10:50 AM 65.9°F18.8°C 47.3°F8.5°C 51% 1.2 mph SSE1.9 kmh SSE 3.5 mph5.6 kmh 29.88 in1011.9 mb - 0.00 in0.0 mm 0.00 in0.0 mm
11:00 AM 65.5°F18.6°C 45.8°F7.7°C 49% 1.2 mph S1.9 kmh S 4.6 mph7.4 kmh 29.88 in1011.9 mb - 0.00 in0.0 mm 0.00 in0.0 mm
11:10 AM 66.2°F19.0°C 46.4°F8.0°C 49% 1.2 mph SSE1.9 kmh SSE 3.5 mph5.6 kmh 29.88 in1011.9 mb - 0.00 in0.0 mm 0.00 in0.0 mm
11:20 AM 65.8°F18.8°C 46.1°F7.8°C 49% 3.5 mph S5.6 kmh S 5.8 mph9.3 kmh 29.88 in1011.9 mb - 0.00 in0.0 mm 0.00 in0.0 mm
11:30 AM 68.6°F20.3°C 47.0°F8.3°C 46% 3.5 mph S5.6 kmh S 5.8 mph9.3 kmh 29.88 in1011.9 mb - 0.00 in0.0 mm 0.00 in0.0 mm
11:40 AM 67.5°F19.7°C 44.9°F7.2°C 44% Calm Calm 3.5 mph5.6 kmh 29.88 in1011.9 mb - 0.00 in0.0 mm 0.00 in0.0 mm
11:50 AM 66.2°F19.0°C 44.2°F6.8°C 45% 2.3 mph SW3.7 kmh SW 3.5 mph5.6 kmh 29.88 in1011.9 mb - 0.00 in0.0 mm 0.00 in0.0 mm
12:00 PM 67.4°F19.7°C 45.9°F7.7°C 46% 3.5 mph N5.6 kmh N 5.8 mph9.3 kmh 29.88 in1011.9 mb - 0.00 in0.0 mm 0.00 in0.0 mm
12:10 PM 67.4°F19.7°C 45.3°F7.4°C 45% 4.6 mph N7.4 kmh N 8.1 mph13.0 kmh 29.88 in1011.9 mb - 0.00 in0.0 mm 0.00 in0.0 mm
12:20 PM 67.4°F19.7°C 45.3°F7.4°C 45% 1.2 mph E1.9 kmh E 3.5 mph5.6 kmh 29.88 in1011.9 mb - 0.00 in0.0 mm 0.00 in0.0 mm
12:30 PM 67.7°F19.8°C 45.0°F7.2°C 44% Calm Calm 3.5 mph5.6 kmh 29.88 in1011.9 mb - 0.00 in0.0 mm 0.00 in0.0 mm
12:40 PM 70.3°F21.3°C 46.7°F8.2°C 43% 1.2 mph NNW1.9 kmh NNW 4.6 mph7.4 kmh 29.88 in1011.9 mb - 0.00 in0.0 mm 0.00 in0.0 mm
12:50 PM 70.1°F21.2°C 43.9°F6.6°C 39% 4.6 mph NE7.4 kmh NE 5.8 mph9.3 kmh 29.86 in1011.2 mb - 0.00 in0.0 mm 0.00 in0.0 mm
01:00 PM 71.2°F21.8°C 45.7°F7.6°C 40% 3.5 mph NNW5.6 kmh NNW 6.9 mph11.1 kmh 29.86 in1011.2 mb - 0.00 in0.0 mm 0.00 in0.0 mm
01:10 PM 71.2°F21.8°C 45.0°F7.2°C 39% 2.3 mph NNW3.7 kmh NNW 3.5 mph5.6 kmh 29.86 in1011.2 mb - 0.00 in0.0 mm 0.00 in0.0 mm
01:20 PM 71.4°F21.9°C 43.8°F6.6°C 37% 2.3 mph SSW3.7 kmh SSW 4.6 mph7.4 kmh 29.86 in1011.2 mb - 0.00 in0.0 mm 0.00 in0.0 mm
01:30 PM 70.7°F21.5°C 43.9°F6.6°C 38% Calm Calm -- 29.86 in1011.2 mb - 0.00 in0.0 mm 0.00 in0.0 mm
01:40 PM 70.0°F21.1°C 43.2°F6.2°C 38% 4.6 mph SW7.4 kmh SW 8.1 mph13.0 kmh 29.86 in1011.2 mb - 0.00 in0.0 mm 0.00 in0.0 mm
01:50 PM 68.2°F20.1°C 42.3°F5.7°C 39% 1.2 mph WSW1.9 kmh WSW 3.5 mph5.6 kmh 29.86 in1011.2 mb - 0.00 in0.0 mm 0.00 in0.0 mm
02:00 PM 68.5°F20.3°C 43.2°F6.2°C 40% 2.3 mph NW3.7 kmh NW 5.8 mph9.3 kmh 29.86 in1011.2 mb - 0.00 in0.0 mm 0.00 in0.0 mm
02:10 PM 69.9°F21.1°C 43.1°F6.2°C 38% 1.2 mph WSW1.9 kmh WSW 3.5 mph5.6 kmh 29.86 in1011.2 mb - 0.00 in0.0 mm 0.00 in0.0 mm
02:20 PM 69.3°F20.7°C 43.3°F6.3°C 39% 2.3 mph WNW3.7 kmh WNW 5.8 mph9.3 kmh 29.86 in1011.2 mb - 0.00 in0.0 mm 0.00 in0.0 mm
02:30 PM 70.6°F21.4°C 43.1°F6.2°C 37% 3.5 mph NW5.6 kmh NW 8.1 mph13.0 kmh 29.86 in1011.2 mb - 0.00 in0.0 mm 0.00 in0.0 mm
02:40 PM 69.1°F20.6°C 42.4°F5.8°C 38% 4.6 mph WSW7.4 kmh WSW 8.1 mph13.0 kmh 29.86 in1011.2 mb - 0.00 in0.0 mm 0.00 in0.0 mm
02:50 PM 68.4°F20.2°C 41.8°F5.4°C 38% 6.9 mph NW11.1 kmh NW 11.5 mph18.5 kmh 29.86 in1011.2 mb - 0.00 in0.0 mm 0.00 in0.0 mm
03:00 PM 70.0°F21.1°C 43.9°F6.6°C 39% 6.9 mph NW11.1 kmh NW 15.0 mph24.1 kmh 29.86 in1011.2 mb - 0.00 in0.0 mm 0.00 in0.0 mm
03:10 PM 68.7°F20.4°C 41.4°F5.2°C 37% 6.9 mph NW11.1 kmh NW 9.2 mph14.8 kmh 29.86 in1011.2 mb - 0.00 in0.0 mm 0.00 in0.0 mm
03:20 PM 71.0°F21.7°C 42.7°F5.9°C 36% 6.9 mph NNW11.1 kmh NNW 10.4 mph16.7 kmh 29.86 in1011.2 mb - 0.00 in0.0 mm 0.00 in0.0 mm
03:30 PM 70.3°F21.3°C 41.4°F5.2°C 35% 9.2 mph NNW14.8 kmh NNW 15.0 mph24.1 kmh 29.86 in1011.2 mb - 0.00 in0.0 mm 0.00 in0.0 mm
03:40 PM 71.2°F21.8°C 44.3°F6.8°C 38% 6.9 mph NNW11.1 kmh NNW 11.5 mph18.5 kmh 29.86 in1011.2 mb - 0.00 in0.0 mm 0.00 in0.0 mm
03:50 PM 71.5°F21.9°C 44.6°F7.0°C 38% 6.9 mph NNW11.1 kmh NNW 10.4 mph16.7 kmh 29.86 in1011.2 mb - 0.00 in0.0 mm 0.00 in0.0 mm
04:00 PM 71.0°F21.7°C 44.1°F6.7°C 38% 5.8 mph NNW9.3 kmh NNW 9.2 mph14.8 kmh 29.86 in1011.2 mb - 0.00 in0.0 mm 0.00 in0.0 mm
04:10 PM 71.6°F22.0°C 43.9°F6.6°C 37% 6.9 mph N11.1 kmh N 8.1 mph13.0 kmh 29.86 in1011.2 mb - 0.00 in0.0 mm 0.00 in0.0 mm
04:20 PM 72.9°F22.7°C 42.8°F6.0°C 34% 9.2 mph NW14.8 kmh NW 15.0 mph24.1 kmh 29.86 in1011.2 mb - 0.00 in0.0 mm 0.00 in0.0 mm
04:30 PM 72.9°F22.7°C 42.8°F6.0°C 34% 9.2 mph NW14.8 kmh NW 17.3 mph27.8 kmh 29.86 in1011.2 mb - 0.00 in0.0 mm 0.00 in0.0 mm
04:40 PM 71.7°F22.1°C 41.1°F5.1°C 33% 8.1 mph NW13.0 kmh NW 16.1 mph25.9 kmh 29.86 in1011.2 mb - 0.00 in0.0 mm 0.00 in0.0 mm
04:50 PM 71.4°F21.9°C 41.5°F5.3°C 34% 11.5 mph NW18.5 kmh NW 17.3 mph27.8 kmh 29.86 in1011.2 mb - 0.00 in0.0 mm 0.00 in0.0 mm
05:00 PM 70.9°F21.6°C 42.6°F5.9°C 36% 8.1 mph NNW13.0 kmh NNW 10.4 mph16.7 kmh 29.86 in1011.2 mb - 0.00 in0.0 mm 0.00 in0.0 mm
05:10 PM 68.8°F20.4°C 41.4°F5.2°C 37% 9.2 mph N14.8 kmh N 13.8 mph22.2 kmh 29.86 in1011.2 mb - 0.00 in0.0 mm 0.00 in0.0 mm
05:20 PM 69.1°F20.6°C 42.4°F5.8°C 38% 6.9 mph NNE11.1 kmh NNE 8.1 mph13.0 kmh 29.86 in1011.2 mb - 0.00 in0.0 mm 0.00 in0.0 mm
05:40 PM 69.4°F20.8°C 42.0°F5.6°C 37% 8.1 mph NNW13.0 kmh NNW 12.7 mph20.4 kmh 29.86 in1011.2 mb - 0.00 in0.0 mm 0.00 in0.0 mm
05:50 PM 69.8°F21.0°C 40.9°F4.9°C 35% 8.1 mph WNW13.0 kmh WNW 13.8 mph22.2 kmh 29.86 in1011.2 mb - 0.00 in0.0 mm 0.00 in0.0 mm
06:00 PM 69.3°F20.7°C 40.4°F4.7°C 35% 6.9 mph WNW11.1 kmh WNW 12.7 mph20.4 kmh 29.86 in1011.2 mb - 0.00 in0.0 mm 0.00 in0.0 mm
06:10 PM 69.1°F20.6°C 40.3°F4.6°C 35% 8.1 mph NNW13.0 kmh NNW 11.5 mph18.5 kmh 29.86 in1011.2 mb - 0.00 in0.0 mm 0.00 in0.0 mm
06:20 PM 68.7°F20.4°C 39.9°F4.4°C 35% 8.1 mph NW13.0 kmh NW 10.4 mph16.7 kmh 29.86 in1011.2 mb - 0.00 in0.0 mm 0.00 in0.0 mm
06:30 PM 67.6°F19.8°C 41.1°F5.1°C 38% 6.9 mph N11.1 kmh N 10.4 mph16.7 kmh 29.86 in1011.2 mb - 0.00 in0.0 mm 0.00 in0.0 mm
06:40 PM 65.5°F18.6°C 42.4°F5.8°C 43% 9.2 mph N14.8 kmh N 12.7 mph20.4 kmh 29.86 in1011.2 mb - 0.00 in0.0 mm 0.00 in0.0 mm
06:50 PM 65.1°F18.4°C 42.7°F5.9°C 44% 6.9 mph NNW11.1 kmh NNW 8.1 mph13.0 kmh 29.86 in1011.2 mb - 0.00 in0.0 mm 0.00 in0.0 mm
07:00 PM 64.2°F17.9°C 42.4°F5.8°C 45% 6.9 mph N11.1 kmh N 11.5 mph18.5 kmh 29.88 in1011.9 mb - 0.00 in0.0 mm 0.00 in0.0 mm
07:10 PM 63.0°F17.2°C 41.9°F5.5°C 46% 6.9 mph NNE11.1 kmh NNE 10.4 mph16.7 kmh 29.88 in1011.9 mb - 0.00 in0.0 mm 0.00 in0.0 mm
07:20 PM 62.0°F16.7°C 42.0°F5.6°C 48% 5.8 mph NNW9.3 kmh NNW 10.4 mph16.7 kmh 29.88 in1011.9 mb - 0.00 in0.0 mm 0.00 in0.0 mm
07:30 PM 61.3°F16.3°C 41.9°F5.5°C 49% 5.8 mph N9.3 kmh N 8.1 mph13.0 kmh 29.88 in1011.9 mb - 0.00 in0.0 mm 0.00 in0.0 mm
07:40 PM 60.8°F16.0°C 42.0°F5.6°C 50% 4.6 mph NW7.4 kmh NW 5.8 mph9.3 kmh 29.88 in1011.9 mb - 0.00 in0.0 mm 0.00 in0.0 mm
07:50 PM 59.9°F15.5°C 42.8°F6.0°C 53% 2.3 mph W3.7 kmh W 3.5 mph5.6 kmh 29.88 in1011.9 mb - 0.00 in0.0 mm 0.00 in0.0 mm
08:00 PM 58.9°F14.9°C 42.7°F5.9°C 55% Calm Calm 6.9 mph11.1 kmh 29.88 in1011.9 mb - 0.00 in0.0 mm 0.00 in0.0 mm
08:10 PM 58.2°F14.6°C 43.0°F6.1°C 57% 3.5 mph NW5.6 kmh NW 3.5 mph5.6 kmh 29.88 in1011.9 mb - 0.00 in0.0 mm 0.00 in0.0 mm
08:20 PM 57.7°F14.3°C 43.1°F6.2°C 58% 3.5 mph NW5.6 kmh NW 3.5 mph5.6 kmh 29.88 in1011.9 mb - 0.00 in0.0 mm 0.00 in0.0 mm
08:30 PM 57.4°F14.1°C 43.6°F6.4°C 60% 1.2 mph WNW1.9 kmh WNW -- 29.88 in1011.9 mb - 0.00 in0.0 mm 0.00 in0.0 mm
08:40 PM 56.8°F13.8°C 43.5°F6.4°C 61% 2.3 mph WNW3.7 kmh WNW 3.5 mph5.6 kmh 29.88 in1011.9 mb - 0.00 in0.0 mm 0.00 in0.0 mm
08:50 PM 56.7°F13.7°C 43.8°F6.6°C 62% 3.5 mph NNW5.6 kmh NNW 3.5 mph5.6 kmh 29.91 in1012.9 mb - 0.00 in0.0 mm 0.00 in0.0 mm
09:00 PM 56.3°F13.5°C 43.9°F6.6°C 63% 3.5 mph NNW5.6 kmh NNW 4.6 mph7.4 kmh 29.91 in1012.9 mb - 0.00 in0.0 mm 0.00 in0.0 mm
09:10 PM 56.0°F13.3°C 44.0°F6.7°C 64% 3.5 mph NNW5.6 kmh NNW 3.5 mph5.6 kmh 29.91 in1012.9 mb - 0.00 in0.0 mm 0.00 in0.0 mm
09:20 PM 55.6°F13.1°C 44.0°F6.7°C 65% 2.3 mph NNW3.7 kmh NNW 3.5 mph5.6 kmh 29.91 in1012.9 mb - 0.00 in0.0 mm 0.00 in0.0 mm
09:40 PM 54.2°F12.3°C 44.2°F6.8°C 69% Calm Calm -- 29.91 in1012.9 mb - 0.00 in0.0 mm 0.00 in0.0 mm
09:50 PM 53.8°F12.1°C 44.6°F7.0°C 71% Calm Calm -- 29.91 in1012.9 mb - 0.00 in0.0 mm 0.00 in0.0 mm
10:00 PM 53.1°F11.7°C 44.3°F6.8°C 72% Calm Calm -- 29.91 in1012.9 mb - 0.00 in0.0 mm 0.00 in0.0 mm
10:10 PM 52.7°F11.5°C 44.3°F6.8°C 73% Calm Calm -- 29.91 in1012.9 mb - 0.00 in0.0 mm 0.00 in0.0 mm
10:20 PM 52.0°F11.1°C 43.9°F6.6°C 74% Calm Calm -- 29.91 in1012.9 mb - 0.00 in0.0 mm 0.00 in0.0 mm
10:30 PM 51.4°F10.8°C 43.8°F6.6°C 75% Calm Calm -- 29.91 in1012.9 mb - 0.00 in0.0 mm 0.00 in0.0 mm
10:40 PM 50.9°F10.5°C 43.6°F6.4°C 76% Calm Calm -- 29.91 in1012.9 mb - 0.00 in0.0 mm 0.00 in0.0 mm
10:50 PM 50.7°F10.4°C 44.1°F6.7°C 78% Calm Calm -- 29.91 in1012.9 mb - 0.00 in0.0 mm 0.00 in0.0 mm
11:00 PM 50.4°F10.2°C 44.4°F6.9°C 80% Calm Calm -- 29.91 in1012.9 mb - 0.00 in0.0 mm 0.00 in0.0 mm
11:10 PM 50.0°F10.0°C 44.4°F6.9°C 81% Calm Calm -- 29.91 in1012.9 mb - 0.00 in0.0 mm 0.00 in0.0 mm
11:20 PM 49.5°F9.7°C 44.2°F6.8°C 82% Calm Calm -- 29.91 in1012.9 mb - 0.00 in0.0 mm 0.00 in0.0 mm
11:30 PM 49.2°F9.6°C 44.2°F6.8°C 83% Calm Calm -- 29.91 in1012.9 mb - 0.00 in0.0 mm 0.00 in0.0 mm
11:40 PM 48.9°F9.4°C 44.0°F6.7°C 83% Calm Calm -- 29.91 in1012.9 mb - 0.00 in0.0 mm 0.00 in0.0 mm
11:50 PM 48.7°F9.3°C 44.1°F6.7°C 84% Calm Calm -- 29.91 in1012.9 mb - 0.00 in0.0 mm 0.00 in0.0 mm